GORO2: Illinois River, Gore, OK

                                SHEF ID:       GORO2     Illinois River near Gore, OK
STATION TYPE:
Regulating: Stage = 17.00, Flow = 14873

PRECIP PRECIP(A) STAGE STAGE(2) RIV-FLOW WTR-TEMP DIS-OXY BAT-LOAD
in in ft ft cfs F mg/l volt
Ccp-Rev Ccp-Rev Ccp-Rev Ccp-Rev Ccp-Rev Ccp-Rev Ccp-Rev Ccp-Rev
(America/Chicago)
04/28 00:00 0.00 ---- 11.30 11.30 3986 52.65 7.95 12.74
04/28 01:00 0.00 ---- 9.53 9.69 1967 53.01 7.89 12.74
04/28 02:00 0.00 ---- 7.82 7.82 572 53.98 8.01 12.73
04/28 03:00 ---- ---- ---- ---- ---- ---- ---- ----
04/28 04:00 ---- ---- 6.99 7.04 180 54.70 7.90 12.71
04/28 05:00 0.00 ---- 6.88 7.04 148 54.86 7.84 12.70
04/28 06:00 0.00 ---- 6.81 7.04 130 55.02 7.77 12.69
04/28 07:00 0.00 ---- 10.10 9.80 2571 54.68 7.97 12.67
04/28 08:00 0.00 ---- 11.13 11.12 3773 53.08 8.06 12.68
04/28 09:00 0.00 ---- 11.24 11.23 3910 52.99 8.24 12.76
04/28 10:00 0.00 ---- 11.27 11.26 3948 53.06 8.30 12.74
04/28 11:00 0.00 ---- 11.27 11.26 3948 53.44 8.50 13.03
04/28 12:00 0.00 ---- 11.27 11.27 3948 53.44 8.33 12.89
04/28 13:00 0.00 ---- 11.28 11.27 3961 54.25 8.76 13.17
04/28 14:00 0.00 ---- 11.29 11.29 3974 54.16 8.66 13.06
04/28 15:00 0.00 ---- 11.29 11.29 3974 54.37 8.74 13.15
04/28 16:00 0.00 ---- 11.29 11.29 3974 54.34 8.73 13.07
04/28 17:00 0.00 ---- 11.30 11.29 3986 54.12 8.47 12.99
04/28 18:00 0.00 ---- 11.29 11.29 3974 54.07 8.27 12.89
04/28 19:00 0.00 ---- 11.29 11.29 3974 54.19 8.30 12.86
04/28 20:00 0.00 ---- 10.58 10.59 3115 54.16 8.16 12.79
04/28 21:00 0.00 ---- 10.11 10.09 2582 53.76 8.45 12.77
04/28 22:00 0.00 ---- 10.04 10.02 2504 53.26 8.59 12.75
04/28 23:00 0.00 ---- 10.02 10.00 2482 52.99 8.67 12.73
Data processed at Wed 29Apr2026 04:35 GMT

NOTICE: If you are parsing this page

Please convert to using our Data API. Starting early 2026 we will be migrating to: https://water.usace.army.mil with modern pages rendered in JavaScript. When this migration completes you will no longer be able to scrape this page! CWMSDataAPI (CDA)

Timeseries IDs (TSIDs)

TSIDs used from left to right in the data table
GORE.Precip-Inc.Total.1Hour.1Hour.Ccp-Rev
GORE.Precip-Inc Alt.Total.1Hour.1Hour.Ccp-Rev
GORE.Stage.Inst.1Hour.0.Ccp-Rev
GORE.Stage-Alt.Inst.1Hour.0.Ccp-Rev
GORE.Flow.Inst.1Hour.0.Ccp-Rev
GORE.Temp-Water.Inst.1Hour.0.Ccp-Rev
GORE.Conc-DO.Inst.1Hour.0.Ccp-Rev
GORE.Volt-Battery Load.Inst.1Hour.0.Ccp-Rev

                            

All information presented herein is the property of the government of the United States of America and may be revised or deleted at any time without prior notice. Dissemination of this information without the expressed written consent of the Public Affairs Office, Tulsa District U.S. Army Corps of Engineers is strictly prohibited. These data are gathered electronically and, as presented, have NOT undergone any form of quality control. These data are NOT guaranteed to be valid or correct.